createdAt,value
2022-12-25T00:01:08.859Z,4.45
2022-12-25T00:11:10.769Z,8.80
2022-12-25T00:21:12.042Z,7.65
2022-12-25T00:31:13.391Z,8.82
2022-12-25T00:41:14.653Z,8.57
2022-12-25T00:51:15.948Z,9.10
2022-12-25T01:01:17.271Z,8.98
2022-12-25T01:11:18.634Z,12.02
2022-12-25T01:21:23.007Z,10.65
2022-12-25T01:31:24.253Z,7.30
2022-12-25T01:41:25.526Z,7.45
2022-12-25T01:51:26.782Z,6.40
2022-12-25T02:01:28.119Z,6.40
2022-12-25T02:11:47.843Z,9.43
2022-12-25T02:21:49.100Z,8.90
2022-12-25T02:31:50.372Z,8.70
2022-12-25T02:41:51.637Z,9.57
2022-12-25T02:52:11.750Z,7.30
2022-12-25T03:02:31.845Z,6.50
2022-12-25T03:12:33.154Z,6.80
2022-12-25T03:22:53.076Z,9.85
2022-12-25T03:32:58.758Z,7.15
2022-12-25T03:43:19.025Z,10.48
2022-12-25T03:53:38.835Z,10.07
2022-12-25T04:03:59.120Z,13.18
2022-12-25T04:14:19.016Z,6.35
2022-12-25T04:24:38.834Z,7.63
2022-12-25T04:34:58.884Z,9.65
2022-12-25T04:45:00.597Z,13.40
2022-12-25T04:55:01.810Z,12.38
2022-12-25T05:05:03.058Z,10.20
2022-12-25T05:15:04.318Z,9.25
2022-12-25T05:25:05.562Z,10.45
2022-12-25T05:35:08.735Z,10.80
2022-12-25T05:45:09.952Z,11.88
2022-12-25T05:55:11.224Z,16.25
2022-12-25T06:05:12.592Z,15.13
2022-12-25T06:15:13.935Z,13.50
2022-12-25T06:25:15.197Z,14.32
2022-12-25T06:35:16.411Z,13.93
2022-12-25T06:45:17.671Z,9.05
2022-12-25T06:55:18.936Z,8.27
2022-12-25T07:05:20.163Z,11.13
2022-12-25T07:15:21.435Z,8.43
2022-12-25T07:25:22.681Z,8.70
2022-12-25T07:35:23.929Z,8.25
2022-12-25T07:45:25.233Z,12.30
2022-12-25T07:55:26.495Z,9.90
2022-12-25T08:05:27.734Z,11.70
2022-12-25T08:15:28.978Z,7.35
2022-12-25T08:25:31.274Z,7.55
2022-12-25T08:35:32.507Z,8.75
2022-12-25T08:45:35.337Z,10.07
2022-12-25T08:55:36.953Z,15.65
2022-12-25T09:05:38.219Z,16.02
2022-12-25T09:15:39.548Z,9.45
2022-12-25T09:25:40.876Z,9.52
2022-12-25T09:35:42.115Z,7.65
2022-12-25T09:45:43.400Z,6.55
2022-12-25T09:55:44.620Z,8.60
2022-12-25T10:05:45.888Z,8.45
2022-12-25T10:15:47.163Z,8.27
2022-12-25T10:25:48.481Z,5.80
2022-12-25T10:35:49.725Z,7.13
2022-12-25T10:45:51.020Z,8.30
2022-12-25T10:55:52.273Z,12.30
2022-12-25T11:05:54.234Z,6.80
2022-12-25T11:15:55.516Z,7.07
2022-12-25T11:25:56.898Z,7.10
2022-12-25T11:35:58.181Z,7.60
2022-12-25T11:45:59.502Z,6.00
2022-12-25T11:56:00.764Z,5.80
2022-12-25T12:06:02.088Z,7.97
2022-12-25T12:16:05.864Z,6.25
2022-12-25T12:26:07.184Z,6.57
2022-12-25T12:36:08.435Z,5.45
2022-12-25T12:46:10.171Z,5.38
2022-12-25T12:56:11.430Z,5.20
2022-12-25T13:06:12.653Z,6.57
2022-12-25T13:16:13.923Z,9.23
2022-12-25T13:26:15.179Z,7.97
2022-12-25T13:36:16.579Z,9.60
2022-12-25T13:46:17.902Z,14.20
2022-12-25T13:56:19.216Z,9.52
2022-12-25T14:06:20.523Z,6.63
2022-12-25T14:16:21.818Z,6.90
2022-12-25T14:26:23.081Z,6.57
2022-12-25T14:36:24.368Z,5.13
2022-12-25T14:46:26.136Z,5.18
2022-12-25T14:56:27.860Z,5.97
2022-12-25T15:06:29.286Z,11.25
2022-12-25T15:16:30.674Z,7.65
2022-12-25T15:26:32.012Z,8.63
2022-12-25T15:36:34.048Z,8.93
2022-12-25T15:46:35.456Z,9.82
2022-12-25T15:56:36.778Z,17.70
2022-12-25T16:06:38.026Z,17.55
2022-12-25T16:16:39.351Z,20.60
2022-12-25T16:26:40.739Z,12.93
2022-12-25T16:36:41.970Z,17.75
2022-12-25T16:46:43.332Z,14.13
2022-12-25T16:56:44.586Z,19.42
2022-12-25T17:06:45.825Z,32.35
2022-12-25T17:16:47.133Z,22.20
2022-12-25T17:26:48.428Z,18.95
2022-12-25T17:36:49.761Z,12.05
2022-12-25T17:46:51.264Z,16.83
2022-12-25T17:56:52.623Z,18.65
2022-12-25T18:06:53.886Z,17.00
2022-12-25T18:16:55.163Z,19.35
2022-12-25T18:26:56.420Z,17.13
2022-12-25T18:37:02.830Z,17.27
2022-12-25T18:47:04.198Z,16.08
2022-12-25T18:57:07.349Z,14.68
2022-12-25T19:07:08.732Z,12.80
2022-12-25T19:17:10.611Z,9.98
2022-12-25T19:27:11.860Z,9.60
2022-12-25T19:37:13.239Z,13.02
2022-12-25T19:47:14.492Z,10.30
2022-12-25T19:57:15.731Z,11.45
2022-12-25T20:07:17.033Z,10.38
2022-12-25T20:17:18.318Z,8.35
2022-12-25T20:27:19.723Z,8.70
2022-12-25T20:37:21.075Z,9.25
2022-12-25T20:47:22.395Z,9.95
2022-12-25T20:57:23.707Z,10.88
2022-12-25T21:07:24.983Z,6.90
2022-12-25T21:17:26.235Z,8.50
2022-12-25T21:27:27.480Z,8.75
2022-12-25T21:37:28.712Z,7.60
2022-12-25T21:47:59.990Z,7.60
2022-12-25T21:57:51.195Z,7.82
2022-12-25T22:07:52.513Z,8.73
2022-12-25T22:18:12.378Z,7.97
2022-12-25T22:28:13.657Z,7.95
2022-12-25T22:38:14.932Z,7.57
2022-12-25T22:48:16.210Z,6.88
2022-12-25T22:58:17.528Z,10.55
2022-12-25T23:08:18.759Z,7.38
2022-12-25T23:18:38.490Z,9.18
2022-12-25T23:29:02.828Z,6.57
2022-12-25T23:39:09.431Z,7.30
2022-12-25T23:49:11.562Z,6.13
2022-12-25T23:59:12.824Z,7.53
